sensor_id;sensor_type;location;lat;lon;timestamp;pressure;altitude;pressure_sealevel;temperature;humidity
66887;BME280;67239;51.680;5.976;2023-06-14T00:00:19;101254.06;;;19.08;40.46
66887;BME280;67239;51.680;5.976;2023-06-14T00:03:05;101253.22;;;19.07;40.23
66887;BME280;67239;51.680;5.976;2023-06-14T00:05:51;101269.41;;;19.04;40.19
66887;BME280;67239;51.680;5.976;2023-06-14T00:08:36;101259.78;;;19.02;40.25
66887;BME280;67239;51.680;5.976;2023-06-14T00:11:21;101262.91;;;18.94;39.90
66887;BME280;67239;51.680;5.976;2023-06-14T00:14:07;101254.94;;;18.92;40.06
66887;BME280;67239;51.680;5.976;2023-06-14T00:16:52;101260.47;;;18.89;40.24
66887;BME280;67239;51.680;5.976;2023-06-14T00:19:42;101254.44;;;18.86;39.86
66887;BME280;67239;51.680;5.976;2023-06-14T00:22:28;101267.91;;;18.84;39.64
66887;BME280;67239;51.680;5.976;2023-06-14T00:25:13;101268.84;;;18.83;40.14
66887;BME280;67239;51.680;5.976;2023-06-14T00:28:13;101267.13;;;18.82;39.57
66887;BME280;67239;51.680;5.976;2023-06-14T00:30:58;101268.34;;;18.76;40.07
66887;BME280;67239;51.680;5.976;2023-06-14T00:33:46;101265.94;;;18.72;39.56
66887;BME280;67239;51.680;5.976;2023-06-14T00:36:31;101277.66;;;18.69;39.26
66887;BME280;67239;51.680;5.976;2023-06-14T00:39:17;101268.97;;;18.66;39.84
66887;BME280;67239;51.680;5.976;2023-06-14T00:42:02;101276.72;;;18.70;39.76
66887;BME280;67239;51.680;5.976;2023-06-14T00:44:47;101281.28;;;18.68;39.83
66887;BME280;67239;51.680;5.976;2023-06-14T00:47:33;101288.34;;;18.69;39.86
66887;BME280;67239;51.680;5.976;2023-06-14T00:50:23;101286.88;;;18.63;39.96
66887;BME280;67239;51.680;5.976;2023-06-14T00:53:09;101291.28;;;18.65;39.79
66887;BME280;67239;51.680;5.976;2023-06-14T00:55:54;101285.31;;;18.59;39.87
66887;BME280;67239;51.680;5.976;2023-06-14T00:58:41;101285.28;;;18.45;40.15
66887;BME280;67239;51.680;5.976;2023-06-14T01:01:27;101292.06;;;18.35;40.54
66887;BME280;67239;51.680;5.976;2023-06-14T01:04:13;101284.59;;;18.25;40.71
66887;BME280;67239;51.680;5.976;2023-06-14T01:13:39;101283.28;;;18.16;41.23
66887;BME280;67239;51.680;5.976;2023-06-14T01:16:29;101296.97;;;18.10;41.19
66887;BME280;67239;51.680;5.976;2023-06-14T01:19:16;101292.63;;;18.08;41.43
66887;BME280;67239;51.680;5.976;2023-06-14T01:22:03;101293.41;;;18.10;41.46
66887;BME280;67239;51.680;5.976;2023-06-14T01:24:48;101288.44;;;18.04;41.53
66887;BME280;67239;51.680;5.976;2023-06-14T01:27:36;101288.59;;;18.00;41.65
66887;BME280;67239;51.680;5.976;2023-06-14T01:30:22;101290.56;;;17.97;41.65
66887;BME280;67239;51.680;5.976;2023-06-14T01:33:14;101294.41;;;17.91;41.81
66887;BME280;67239;51.680;5.976;2023-06-14T01:36:05;101287.75;;;17.82;42.12
66887;BME280;67239;51.680;5.976;2023-06-14T01:38:53;101286.34;;;17.75;42.38
66887;BME280;67239;51.680;5.976;2023-06-14T01:41:47;101287.53;;;17.69;42.41
66887;BME280;67239;51.680;5.976;2023-06-14T01:44:36;101296.88;;;17.61;42.86
66887;BME280;67239;51.680;5.976;2023-06-14T01:47:23;101286.72;;;17.51;43.01
66887;BME280;67239;51.680;5.976;2023-06-14T01:50:09;101297.78;;;17.44;43.27
66887;BME280;67239;51.680;5.976;2023-06-14T01:52:54;101296.06;;;17.43;43.49
66887;BME280;67239;51.680;5.976;2023-06-14T01:55:40;101295.38;;;17.39;43.74
66887;BME280;67239;51.680;5.976;2023-06-14T01:58:28;101291.22;;;17.33;43.81
66887;BME280;67239;51.680;5.976;2023-06-14T02:01:15;101290.97;;;17.38;43.52
66887;BME280;67239;51.680;5.976;2023-06-14T02:04:03;101289.63;;;17.29;43.75
66887;BME280;67239;51.680;5.976;2023-06-14T02:06:48;101293.47;;;17.23;44.01
66887;BME280;67239;51.680;5.976;2023-06-14T02:09:34;101291.97;;;17.18;44.14
66887;BME280;67239;51.680;5.976;2023-06-14T02:12:20;101280.88;;;17.10;44.15
66887;BME280;67239;51.680;5.976;2023-06-14T02:15:05;101282.88;;;17.04;44.54
66887;BME280;67239;51.680;5.976;2023-06-14T02:17:52;101284.09;;;16.99;45.06
66887;BME280;67239;51.680;5.976;2023-06-14T02:20:39;101286.28;;;17.08;44.95
66887;BME280;67239;51.680;5.976;2023-06-14T02:23:24;101282.81;;;17.06;44.67
66887;BME280;67239;51.680;5.976;2023-06-14T02:26:09;101285.03;;;16.98;45.02
66887;BME280;67239;51.680;5.976;2023-06-14T02:28:54;101282.63;;;16.91;45.11
66887;BME280;67239;51.680;5.976;2023-06-14T02:31:40;101279.38;;;16.85;45.47
66887;BME280;67239;51.680;5.976;2023-06-14T02:34:26;101278.84;;;16.78;45.63
66887;BME280;67239;51.680;5.976;2023-06-14T02:37:12;101290.34;;;16.79;45.78
66887;BME280;67239;51.680;5.976;2023-06-14T02:39:58;101294.75;;;16.80;45.82
66887;BME280;67239;51.680;5.976;2023-06-14T02:42:43;101292.09;;;16.80;45.86
66887;BME280;67239;51.680;5.976;2023-06-14T02:45:29;101287.91;;;16.74;45.72
66887;BME280;67239;51.680;5.976;2023-06-14T02:48:14;101290.91;;;16.68;46.23
66887;BME280;67239;51.680;5.976;2023-06-14T02:51:00;101289.09;;;16.68;46.00
66887;BME280;67239;51.680;5.976;2023-06-14T02:53:45;101295.47;;;16.64;46.27
66887;BME280;67239;51.680;5.976;2023-06-14T02:56:30;101292.81;;;16.64;46.37
66887;BME280;67239;51.680;5.976;2023-06-14T02:59:16;101303.69;;;16.59;46.19
66887;BME280;67239;51.680;5.976;2023-06-14T03:02:02;101300.25;;;16.57;46.46
66887;BME280;67239;51.680;5.976;2023-06-14T03:04:49;101305.59;;;16.57;46.50
66887;BME280;67239;51.680;5.976;2023-06-14T03:07:37;101306.53;;;16.56;46.85
66887;BME280;67239;51.680;5.976;2023-06-14T03:10:27;101310.25;;;16.52;46.92
66887;BME280;67239;51.680;5.976;2023-06-14T03:13:15;101317.44;;;16.50;46.94
66887;BME280;67239;51.680;5.976;2023-06-14T03:16:01;101319.38;;;16.46;47.22
66887;BME280;67239;51.680;5.976;2023-06-14T03:18:53;101318.81;;;16.40;47.29
66887;BME280;67239;51.680;5.976;2023-06-14T03:21:38;101311.94;;;16.36;47.72
66887;BME280;67239;51.680;5.976;2023-06-14T03:24:28;101315.66;;;16.32;47.96
66887;BME280;67239;51.680;5.976;2023-06-14T03:27:16;101318.22;;;16.33;47.49
66887;BME280;67239;51.680;5.976;2023-06-14T03:30:04;101317.47;;;16.31;48.02
66887;BME280;67239;51.680;5.976;2023-06-14T03:32:50;101321.78;;;16.34;47.63
66887;BME280;67239;51.680;5.976;2023-06-14T03:35:38;101331.63;;;16.32;48.48
66887;BME280;67239;51.680;5.976;2023-06-14T03:38:23;101339.91;;;16.25;48.11
66887;BME280;67239;51.680;5.976;2023-06-14T03:41:08;101337.44;;;16.21;48.38
66887;BME280;67239;51.680;5.976;2023-06-14T03:43:54;101336.44;;;16.23;48.49
66887;BME280;67239;51.680;5.976;2023-06-14T03:46:39;101344.78;;;16.35;47.97
66887;BME280;67239;51.680;5.976;2023-06-14T03:49:25;101348.09;;;16.40;48.55
66887;BME280;67239;51.680;5.976;2023-06-14T03:52:11;101336.88;;;16.52;48.09
66887;BME280;67239;51.680;5.976;2023-06-14T03:54:59;101342.84;;;16.57;47.85
66887;BME280;67239;51.680;5.976;2023-06-14T03:57:49;101347.22;;;16.58;47.69
66887;BME280;67239;51.680;5.976;2023-06-14T04:00:35;101341.03;;;16.58;48.13
66887;BME280;67239;51.680;5.976;2023-06-14T04:03:20;101349.94;;;16.57;47.63
66887;BME280;67239;51.680;5.976;2023-06-14T04:06:09;101349.81;;;16.60;48.00
66887;BME280;67239;51.680;5.976;2023-06-14T04:08:55;101352.75;;;16.73;47.75
66887;BME280;67239;51.680;5.976;2023-06-14T04:11:40;101355.53;;;16.70;48.21
66887;BME280;67239;51.680;5.976;2023-06-14T04:14:25;101355.75;;;16.65;48.02
66887;BME280;67239;51.680;5.976;2023-06-14T04:17:11;101360.38;;;16.61;48.34
66887;BME280;67239;51.680;5.976;2023-06-14T04:20:01;101362.78;;;16.68;48.32
66887;BME280;67239;51.680;5.976;2023-06-14T04:22:51;101363.53;;;16.70;48.32
66887;BME280;67239;51.680;5.976;2023-06-14T04:25:38;101368.63;;;16.74;48.60
66887;BME280;67239;51.680;5.976;2023-06-14T04:28:23;101366.06;;;16.73;48.49
66887;BME280;67239;51.680;5.976;2023-06-14T04:31:14;101373.34;;;16.69;48.43
66887;BME280;67239;51.680;5.976;2023-06-14T04:34:02;101366.78;;;16.76;48.42
66887;BME280;67239;51.680;5.976;2023-06-14T04:36:50;101372.88;;;16.79;48.56
66887;BME280;67239;51.680;5.976;2023-06-14T04:39:50;101374.69;;;16.78;48.47
66887;BME280;67239;51.680;5.976;2023-06-14T04:42:36;101376.56;;;16.76;48.67
66887;BME280;67239;51.680;5.976;2023-06-14T04:45:23;101380.88;;;16.79;48.52
66887;BME280;67239;51.680;5.976;2023-06-14T04:48:12;101385.13;;;16.83;48.88
66887;BME280;67239;51.680;5.976;2023-06-14T04:51:00;101387.41;;;16.90;49.13
66887;BME280;67239;51.680;5.976;2023-06-14T04:53:45;101387.16;;;16.97;48.64
66887;BME280;67239;51.680;5.976;2023-06-14T04:56:32;101383.47;;;16.99;48.78
66887;BME280;67239;51.680;5.976;2023-06-14T04:59:18;101382.22;;;17.06;48.64
66887;BME280;67239;51.680;5.976;2023-06-14T05:02:04;101384.38;;;17.17;47.96
66887;BME280;67239;51.680;5.976;2023-06-14T05:04:50;101381.41;;;17.23;48.15
66887;BME280;67239;51.680;5.976;2023-06-14T05:07:36;101387.19;;;17.32;48.61
66887;BME280;67239;51.680;5.976;2023-06-14T05:10:26;101379.69;;;17.40;47.84
66887;BME280;67239;51.680;5.976;2023-06-14T05:13:12;101390.28;;;17.59;47.37
66887;BME280;67239;51.680;5.976;2023-06-14T05:15:57;101393.66;;;17.80;47.64
66887;BME280;67239;51.680;5.976;2023-06-14T05:18:43;101395.38;;;18.33;46.65
66887;BME280;67239;51.680;5.976;2023-06-14T05:21:28;101394.75;;;19.39;44.13
66887;BME280;67239;51.680;5.976;2023-06-14T05:24:14;101400.09;;;19.70;43.12
66887;BME280;67239;51.680;5.976;2023-06-14T05:27:09;101400.66;;;19.91;42.49
66887;BME280;67239;51.680;5.976;2023-06-14T05:30:01;101395.78;;;20.12;42.11
66887;BME280;67239;51.680;5.976;2023-06-14T05:32:50;101392.47;;;21.62;39.53
66887;BME280;67239;51.680;5.976;2023-06-14T05:35:35;101395.44;;;24.16;35.20
66887;BME280;67239;51.680;5.976;2023-06-14T05:38:20;101391.03;;;26.00;31.98
66887;BME280;67239;51.680;5.976;2023-06-14T05:41:06;101400.53;;;27.56;29.46
66887;BME280;67239;51.680;5.976;2023-06-14T05:43:52;101403.22;;;28.51;27.67
66887;BME280;67239;51.680;5.976;2023-06-14T05:46:39;101400.78;;;29.40;26.36
66887;BME280;67239;51.680;5.976;2023-06-14T05:49:25;101406.34;;;30.10;24.90
66887;BME280;67239;51.680;5.976;2023-06-14T05:52:10;101411.72;;;30.28;24.55
66887;BME280;67239;51.680;5.976;2023-06-14T05:54:57;101408.31;;;30.68;24.17
66887;BME280;67239;51.680;5.976;2023-06-14T05:57:43;101417.75;;;30.99;23.73
66887;BME280;67239;51.680;5.976;2023-06-14T06:00:28;101411.69;;;31.22;23.12
66887;BME280;67239;51.680;5.976;2023-06-14T06:03:13;101412.69;;;31.45;22.81
66887;BME280;67239;51.680;5.976;2023-06-14T06:05:59;101416.94;;;31.65;22.59
66887;BME280;67239;51.680;5.976;2023-06-14T06:08:45;101424.63;;;31.78;22.71
66887;BME280;67239;51.680;5.976;2023-06-14T06:11:30;101429.72;;;31.81;21.64
66887;BME280;67239;51.680;5.976;2023-06-14T06:14:32;101427.31;;;31.86;21.75
66887;BME280;67239;51.680;5.976;2023-06-14T06:17:18;101433.31;;;31.73;21.94
66887;BME280;67239;51.680;5.976;2023-06-14T06:20:04;101436.22;;;30.79;22.92
66887;BME280;67239;51.680;5.976;2023-06-14T06:22:51;101442.03;;;28.14;25.71
66887;BME280;67239;51.680;5.976;2023-06-14T06:25:37;101433.63;;;25.87;29.09
66887;BME280;67239;51.680;5.976;2023-06-14T06:28:23;101440.50;;;24.48;31.34
66887;BME280;67239;51.680;5.976;2023-06-14T06:31:08;101451.84;;;23.59;32.67
66887;BME280;67239;51.680;5.976;2023-06-14T06:33:55;101451.13;;;22.95;34.04
66887;BME280;67239;51.680;5.976;2023-06-14T06:36:40;101452.63;;;22.62;35.40
66887;BME280;67239;51.680;5.976;2023-06-14T06:39:27;101458.31;;;22.32;35.65
66887;BME280;67239;51.680;5.976;2023-06-14T06:42:12;101458.00;;;22.11;36.34
66887;BME280;67239;51.680;5.976;2023-06-14T06:45:00;101460.44;;;21.88;36.79
66887;BME280;67239;51.680;5.976;2023-06-14T06:47:46;101469.22;;;21.77;37.08
66887;BME280;67239;51.680;5.976;2023-06-14T06:50:31;101474.22;;;21.69;37.61
66887;BME280;67239;51.680;5.976;2023-06-14T06:53:17;101481.31;;;21.70;37.40
66887;BME280;67239;51.680;5.976;2023-06-14T06:56:14;101474.34;;;21.67;37.83
66887;BME280;67239;51.680;5.976;2023-06-14T06:59:00;101482.09;;;21.72;37.46
66887;BME280;67239;51.680;5.976;2023-06-14T07:01:46;101476.72;;;21.72;37.15
66887;BME280;67239;51.680;5.976;2023-06-14T07:04:32;101480.59;;;21.81;36.89
66887;BME280;67239;51.680;5.976;2023-06-14T07:07:17;101484.13;;;21.81;37.13
66887;BME280;67239;51.680;5.976;2023-06-14T07:10:04;101489.38;;;21.83;37.17
66887;BME280;67239;51.680;5.976;2023-06-14T07:12:50;101494.69;;;21.97;37.04
66887;BME280;67239;51.680;5.976;2023-06-14T07:15:36;101493.09;;;22.08;36.99
66887;BME280;67239;51.680;5.976;2023-06-14T07:18:21;101499.44;;;22.19;37.00
66887;BME280;67239;51.680;5.976;2023-06-14T07:21:07;101495.06;;;22.31;36.37
66887;BME280;67239;51.680;5.976;2023-06-14T07:23:53;101501.16;;;22.33;35.89
66887;BME280;67239;51.680;5.976;2023-06-14T07:26:39;101493.09;;;22.33;36.31
66887;BME280;67239;51.680;5.976;2023-06-14T07:29:24;101495.69;;;22.35;36.48
66887;BME280;67239;51.680;5.976;2023-06-14T07:32:09;101507.00;;;22.53;35.91
66887;BME280;67239;51.680;5.976;2023-06-14T07:34:55;101501.38;;;22.69;36.09
66887;BME280;67239;51.680;5.976;2023-06-14T07:37:40;101505.66;;;22.85;35.33
66887;BME280;67239;51.680;5.976;2023-06-14T07:40:25;101508.78;;;22.91;35.15
66887;BME280;67239;51.680;5.976;2023-06-14T07:43:10;101504.03;;;22.95;34.09
66887;BME280;67239;51.680;5.976;2023-06-14T07:45:55;101515.53;;;22.97;33.17
66887;BME280;67239;51.680;5.976;2023-06-14T07:48:52;101500.81;;;22.90;33.40
66887;BME280;67239;51.680;5.976;2023-06-14T07:51:38;101509.06;;;23.00;32.57
66887;BME280;67239;51.680;5.976;2023-06-14T07:54:23;101511.63;;;23.01;32.05
66887;BME280;67239;51.680;5.976;2023-06-14T07:57:11;101517.56;;;23.06;32.47
66887;BME280;67239;51.680;5.976;2023-06-14T07:59:57;101525.06;;;23.14;31.82
66887;BME280;67239;51.680;5.976;2023-06-14T08:02:43;101514.06;;;23.17;30.65
66887;BME280;67239;51.680;5.976;2023-06-14T08:05:29;101516.69;;;23.19;30.96
66887;BME280;67239;51.680;5.976;2023-06-14T08:08:14;101518.81;;;23.26;30.57
66887;BME280;67239;51.680;5.976;2023-06-14T08:11:00;101520.31;;;23.31;31.12
66887;BME280;67239;51.680;5.976;2023-06-14T08:13:45;101522.13;;;23.30;31.13
66887;BME280;67239;51.680;5.976;2023-06-14T08:16:30;101518.13;;;23.36;30.88
66887;BME280;67239;51.680;5.976;2023-06-14T08:19:16;101523.47;;;23.49;31.30
66887;BME280;67239;51.680;5.976;2023-06-14T08:22:01;101516.88;;;23.53;31.24
66887;BME280;67239;51.680;5.976;2023-06-14T08:24:47;101522.66;;;23.60;30.59
66887;BME280;67239;51.680;5.976;2023-06-14T08:27:32;101521.22;;;23.67;30.46
66887;BME280;67239;51.680;5.976;2023-06-14T08:30:18;101510.00;;;23.73;30.08
66887;BME280;67239;51.680;5.976;2023-06-14T08:33:04;101513.31;;;23.77;30.33
66887;BME280;67239;51.680;5.976;2023-06-14T08:36:00;101511.84;;;23.84;30.66
66887;BME280;67239;51.680;5.976;2023-06-14T08:38:46;101522.47;;;23.98;29.92
66887;BME280;67239;51.680;5.976;2023-06-14T08:41:32;101514.50;;;23.97;30.45
66887;BME280;67239;51.680;5.976;2023-06-14T08:44:18;101523.09;;;24.02;30.63
66887;BME280;67239;51.680;5.976;2023-06-14T08:47:05;101521.66;;;24.21;30.06
66887;BME280;67239;51.680;5.976;2023-06-14T08:49:53;101515.78;;;24.27;29.70
66887;BME280;67239;51.680;5.976;2023-06-14T08:52:43;101515.78;;;24.27;29.97
66887;BME280;67239;51.680;5.976;2023-06-14T08:55:36;101507.13;;;24.34;30.06
66887;BME280;67239;51.680;5.976;2023-06-14T08:58:28;101503.31;;;24.48;29.82
66887;BME280;67239;51.680;5.976;2023-06-14T09:01:19;101515.38;;;24.67;29.40
66887;BME280;67239;51.680;5.976;2023-06-14T09:04:06;101506.19;;;24.70;29.34
66887;BME280;67239;51.680;5.976;2023-06-14T09:06:51;101506.41;;;24.66;28.71
66887;BME280;67239;51.680;5.976;2023-06-14T09:09:40;101514.91;;;24.73;28.50
66887;BME280;67239;51.680;5.976;2023-06-14T09:12:49;101516.22;;;24.68;29.39
66887;BME280;67239;51.680;5.976;2023-06-14T09:15:34;101500.91;;;24.68;29.37
66887;BME280;67239;51.680;5.976;2023-06-14T09:18:20;101514.38;;;24.79;28.83
66887;BME280;67239;51.680;5.976;2023-06-14T09:21:07;101520.16;;;24.98;28.43
66887;BME280;67239;51.680;5.976;2023-06-14T09:23:52;101522.47;;;25.02;27.41
66887;BME280;67239;51.680;5.976;2023-06-14T09:26:39;101509.72;;;25.04;26.46
66887;BME280;67239;51.680;5.976;2023-06-14T09:29:25;101517.66;;;25.06;27.19
66887;BME280;67239;51.680;5.976;2023-06-14T09:32:13;101515.34;;;25.12;27.80
66887;BME280;67239;51.680;5.976;2023-06-14T09:34:59;101517.03;;;25.25;28.17
66887;BME280;67239;51.680;5.976;2023-06-14T09:37:44;101511.28;;;25.18;28.71
66887;BME280;67239;51.680;5.976;2023-06-14T09:40:33;101516.28;;;25.23;29.46
66887;BME280;67239;51.680;5.976;2023-06-14T09:43:20;101505.00;;;25.40;27.75
66887;BME280;67239;51.680;5.976;2023-06-14T09:46:08;101515.78;;;25.40;27.67
66887;BME280;67239;51.680;5.976;2023-06-14T09:48:54;101517.63;;;25.28;27.92
66887;BME280;67239;51.680;5.976;2023-06-14T09:51:43;101505.25;;;25.26;27.98
66887;BME280;67239;51.680;5.976;2023-06-14T09:54:32;101517.88;;;25.25;27.60
66887;BME280;67239;51.680;5.976;2023-06-14T09:57:22;101513.84;;;25.20;28.38
66887;BME280;67239;51.680;5.976;2023-06-14T10:00:09;101517.03;;;25.25;28.06
66887;BME280;67239;51.680;5.976;2023-06-14T10:03:00;101509.66;;;25.38;28.06
66887;BME280;67239;51.680;5.976;2023-06-14T10:05:52;101516.91;;;25.26;28.50
66887;BME280;67239;51.680;5.976;2023-06-14T10:08:38;101507.81;;;25.27;28.62
66887;BME280;67239;51.680;5.976;2023-06-14T10:11:28;101510.88;;;25.34;28.76
66887;BME280;67239;51.680;5.976;2023-06-14T10:14:14;101512.00;;;25.43;28.03
66887;BME280;67239;51.680;5.976;2023-06-14T10:17:08;101514.63;;;25.54;27.83
66887;BME280;67239;51.680;5.976;2023-06-14T10:20:03;101509.53;;;25.40;28.17
66887;BME280;67239;51.680;5.976;2023-06-14T10:23:00;101516.28;;;25.46;28.45
66887;BME280;67239;51.680;5.976;2023-06-14T10:25:50;101502.91;;;25.33;28.96
66887;BME280;67239;51.680;5.976;2023-06-14T10:28:41;101503.75;;;25.33;28.82
66887;BME280;67239;51.680;5.976;2023-06-14T10:34:30;101505.06;;;25.62;28.08
66887;BME280;67239;51.680;5.976;2023-06-14T10:37:16;101512.28;;;25.61;28.10
66887;BME280;67239;51.680;5.976;2023-06-14T10:40:02;101508.25;;;25.55;27.96
66887;BME280;67239;51.680;5.976;2023-06-14T10:42:52;101509.91;;;25.68;27.98
66887;BME280;67239;51.680;5.976;2023-06-14T10:46:13;101514.53;;;25.56;27.90
66887;BME280;67239;51.680;5.976;2023-06-14T10:49:06;101508.84;;;25.59;28.19
66887;BME280;67239;51.680;5.976;2023-06-14T10:51:51;101507.56;;;25.74;27.86
66887;BME280;67239;51.680;5.976;2023-06-14T10:54:37;101512.44;;;25.81;27.70
66887;BME280;67239;51.680;5.976;2023-06-14T10:57:23;101513.75;;;25.86;27.19
66887;BME280;67239;51.680;5.976;2023-06-14T11:00:10;101492.50;;;25.72;27.63
66887;BME280;67239;51.680;5.976;2023-06-14T11:06:14;101507.31;;;25.99;28.18
66887;BME280;67239;51.680;5.976;2023-06-14T11:09:20;101502.94;;;26.19;27.88
66887;BME280;67239;51.680;5.976;2023-06-14T11:12:24;101507.19;;;26.43;26.60
66887;BME280;67239;51.680;5.976;2023-06-14T11:15:13;101512.47;;;26.44;26.15
66887;BME280;67239;51.680;5.976;2023-06-14T11:18:06;101511.91;;;26.50;25.70
66887;BME280;67239;51.680;5.976;2023-06-14T11:20:54;101499.63;;;26.37;25.27
66887;BME280;67239;51.680;5.976;2023-06-14T11:23:39;101501.47;;;26.15;25.30
66887;BME280;67239;51.680;5.976;2023-06-14T11:26:29;101510.34;;;26.05;26.61
66887;BME280;67239;51.680;5.976;2023-06-14T11:29:16;101513.00;;;26.17;25.81
66887;BME280;67239;51.680;5.976;2023-06-14T11:32:02;101512.44;;;26.13;25.99
66887;BME280;67239;51.680;5.976;2023-06-14T11:34:51;101516.59;;;26.06;26.12
66887;BME280;67239;51.680;5.976;2023-06-14T11:37:36;101508.03;;;26.01;26.39
66887;BME280;67239;51.680;5.976;2023-06-14T11:40:24;101503.97;;;26.07;26.00
66887;BME280;67239;51.680;5.976;2023-06-14T11:43:10;101492.50;;;25.93;26.91
66887;BME280;67239;51.680;5.976;2023-06-14T11:45:58;101492.78;;;26.11;27.29
66887;BME280;67239;51.680;5.976;2023-06-14T11:48:52;101499.22;;;26.41;26.41
66887;BME280;67239;51.680;5.976;2023-06-14T11:51:37;101503.81;;;26.50;26.45
66887;BME280;67239;51.680;5.976;2023-06-14T11:54:23;101495.63;;;26.41;26.63
66887;BME280;67239;51.680;5.976;2023-06-14T11:57:09;101503.94;;;26.49;26.69
66887;BME280;67239;51.680;5.976;2023-06-14T11:59:55;101508.38;;;26.50;26.10
66887;BME280;67239;51.680;5.976;2023-06-14T12:02:41;101513.66;;;26.30;26.82
66887;BME280;67239;51.680;5.976;2023-06-14T12:05:27;101508.25;;;26.30;26.51
66887;BME280;67239;51.680;5.976;2023-06-14T12:08:12;101507.50;;;26.49;26.51
66887;BME280;67239;51.680;5.976;2023-06-14T12:11:02;101507.09;;;26.54;26.06
66887;BME280;67239;51.680;5.976;2023-06-14T12:13:48;101505.53;;;26.61;25.81
66887;BME280;67239;51.680;5.976;2023-06-14T12:16:36;101505.75;;;26.70;26.11
66887;BME280;67239;51.680;5.976;2023-06-14T12:19:25;101511.81;;;26.62;26.04
66887;BME280;67239;51.680;5.976;2023-06-14T12:22:13;101496.75;;;26.59;26.28
66887;BME280;67239;51.680;5.976;2023-06-14T12:24:59;101498.22;;;26.73;25.76
66887;BME280;67239;51.680;5.976;2023-06-14T12:27:46;101503.25;;;26.78;25.71
66887;BME280;67239;51.680;5.976;2023-06-14T12:30:33;101497.75;;;26.68;25.59
66887;BME280;67239;51.680;5.976;2023-06-14T12:33:19;101500.25;;;26.50;26.70
66887;BME280;67239;51.680;5.976;2023-06-14T12:36:04;101500.25;;;26.50;26.44
66887;BME280;67239;51.680;5.976;2023-06-14T12:38:52;101499.56;;;26.58;26.55
66887;BME280;67239;51.680;5.976;2023-06-14T12:41:40;101493.31;;;26.57;26.15
66887;BME280;67239;51.680;5.976;2023-06-14T12:44:28;101499.97;;;26.84;26.83
66887;BME280;67239;51.680;5.976;2023-06-14T12:47:14;101503.91;;;27.11;25.87
66887;BME280;67239;51.680;5.976;2023-06-14T12:49:59;101503.34;;;27.17;25.67
66887;BME280;67239;51.680;5.976;2023-06-14T12:52:45;101493.97;;;27.31;25.56
66887;BME280;67239;51.680;5.976;2023-06-14T12:55:32;101505.50;;;27.43;25.09
66887;BME280;67239;51.680;5.976;2023-06-14T12:58:18;101499.00;;;27.46;24.93
66887;BME280;67239;51.680;5.976;2023-06-14T13:01:05;101507.34;;;27.33;24.17
66887;BME280;67239;51.680;5.976;2023-06-14T13:03:50;101507.31;;;27.13;24.31
66887;BME280;67239;51.680;5.976;2023-06-14T13:06:39;101515.69;;;27.00;24.70
66887;BME280;67239;51.680;5.976;2023-06-14T13:09:24;101510.97;;;26.92;24.93
66887;BME280;67239;51.680;5.976;2023-06-14T13:12:10;101504.72;;;27.02;25.15
66887;BME280;67239;51.680;5.976;2023-06-14T13:14:56;101506.47;;;27.12;25.20
66887;BME280;67239;51.680;5.976;2023-06-14T13:17:42;101502.63;;;27.15;25.31
66887;BME280;67239;51.680;5.976;2023-06-14T13:20:29;101496.25;;;27.26;24.98
66887;BME280;67239;51.680;5.976;2023-06-14T13:23:15;101501.09;;;27.32;24.43
66887;BME280;67239;51.680;5.976;2023-06-14T13:26:01;101508.06;;;27.25;24.78
66887;BME280;67239;51.680;5.976;2023-06-14T13:28:48;101509.31;;;27.21;24.91
66887;BME280;67239;51.680;5.976;2023-06-14T13:31:33;101502.19;;;27.10;24.76
66887;BME280;67239;51.680;5.976;2023-06-14T13:34:19;101500.34;;;27.10;24.68
66887;BME280;67239;51.680;5.976;2023-06-14T13:37:05;101494.31;;;26.97;25.31
66887;BME280;67239;51.680;5.976;2023-06-14T13:39:50;101503.31;;;26.97;25.19
66887;BME280;67239;51.680;5.976;2023-06-14T13:42:36;101497.31;;;26.94;25.40
66887;BME280;67239;51.680;5.976;2023-06-14T13:45:21;101495.19;;;26.97;25.78
66887;BME280;67239;51.680;5.976;2023-06-14T13:48:07;101505.31;;;27.15;25.84
66887;BME280;67239;51.680;5.976;2023-06-14T13:50:52;101496.38;;;27.15;25.39
66887;BME280;67239;51.680;5.976;2023-06-14T13:53:37;101490.91;;;27.05;25.61
66887;BME280;67239;51.680;5.976;2023-06-14T13:56:23;101496.91;;;26.99;26.34
66887;BME280;67239;51.680;5.976;2023-06-14T13:59:09;101483.81;;;27.13;26.50
66887;BME280;67239;51.680;5.976;2023-06-14T14:01:55;101487.56;;;27.32;26.22
66887;BME280;67239;51.680;5.976;2023-06-14T14:04:42;101483.59;;;27.46;25.89
66887;BME280;67239;51.680;5.976;2023-06-14T14:07:27;101484.31;;;27.58;25.80
66887;BME280;67239;51.680;5.976;2023-06-14T14:10:13;101491.59;;;27.67;25.67
66887;BME280;67239;51.680;5.976;2023-06-14T14:13:00;101485.44;;;27.55;24.95
66887;BME280;67239;51.680;5.976;2023-06-14T14:15:48;101473.16;;;27.41;25.39
66887;BME280;67239;51.680;5.976;2023-06-14T14:18:35;101487.31;;;27.55;24.82
66887;BME280;67239;51.680;5.976;2023-06-14T14:21:22;101488.84;;;27.48;25.73
66887;BME280;67239;51.680;5.976;2023-06-14T14:24:14;101482.19;;;27.52;25.85
66887;BME280;67239;51.680;5.976;2023-06-14T14:27:02;101479.91;;;27.57;25.84
66887;BME280;67239;51.680;5.976;2023-06-14T14:29:48;101479.88;;;27.67;25.58
66887;BME280;67239;51.680;5.976;2023-06-14T14:32:34;101477.63;;;27.72;25.74
66887;BME280;67239;51.680;5.976;2023-06-14T14:35:20;101477.47;;;27.73;25.34
66887;BME280;67239;51.680;5.976;2023-06-14T14:38:08;101480.31;;;27.52;25.75
66887;BME280;67239;51.680;5.976;2023-06-14T14:40:54;101477.84;;;27.39;26.09
66887;BME280;67239;51.680;5.976;2023-06-14T14:43:40;101476.75;;;27.52;25.56
66887;BME280;67239;51.680;5.976;2023-06-14T14:46:25;101480.28;;;27.33;26.10